Terminal Aerodrome Forecast
Issued by NWS Charleston, WV

Current Version | Previous Version | Text Only | Print | Product List | Glossary Off
Versions: 1 2 3 4 5 6 7 8 9 10 11 12 13 14 15 16 17 18 19 20 21 22 23 24 25 26 27 28 29 30

000
FTUS41 KRLX 010500
TAFPKB
TAF
KPKB 010539Z 0106/0206 21004KT P6SM OVC015
     FM010900 19002KT 4SM BR OVC008
     FM011300 21004KT 6SM BR OVC012
     FM011500 23005KT P6SM BKN030
     FM011600 24007KT P6SM BKN035
     FM011900 23008KT P6SM SCT040
     FM020100 21003KT P6SM SCT035=

USA.gov is the U.S. government's official web portal to all federal, state and local government web resources and services.